createdAt,value
2017-05-11T00:01:06.348Z,51.20
2017-05-11T00:03:34.614Z,51.60
2017-05-11T00:06:03.023Z,51.70
2017-05-11T00:08:31.298Z,52.50
2017-05-11T00:10:59.579Z,52.30
2017-05-11T00:13:27.869Z,52.40
2017-05-11T00:15:56.229Z,52.70
2017-05-11T00:18:24.493Z,52.60
2017-05-11T00:20:52.889Z,53.00
2017-05-11T00:23:21.168Z,53.20
2017-05-11T00:25:49.458Z,53.50
2017-05-11T00:28:18.429Z,53.90
2017-05-11T00:30:46.821Z,54.10
2017-05-11T00:33:15.104Z,54.40
2017-05-11T00:35:43.414Z,54.60
2017-05-11T00:38:11.674Z,55.00
2017-05-11T00:40:39.935Z,55.40
2017-05-11T00:43:08.232Z,55.50
2017-05-11T00:45:36.494Z,55.90
2017-05-11T00:48:04.803Z,56.10
2017-05-11T00:50:33.062Z,56.10
2017-05-11T00:53:01.323Z,56.20
2017-05-11T00:55:30.358Z,56.50
2017-05-11T00:57:58.623Z,56.70
2017-05-11T01:00:27.013Z,57.30
2017-05-11T01:02:55.270Z,57.60
2017-05-11T01:05:23.541Z,57.90
2017-05-11T01:07:51.839Z,58.30
2017-05-11T01:10:20.115Z,58.50
2017-05-11T01:12:49.119Z,58.80
2017-05-11T01:15:18.252Z,59.40
2017-05-11T01:17:46.521Z,59.70
2017-05-11T01:20:14.806Z,59.90
2017-05-11T01:22:43.297Z,60.00
2017-05-11T01:25:11.558Z,60.10
2017-05-11T01:27:39.853Z,60.60
2017-05-11T01:30:08.326Z,60.90
2017-05-11T01:32:36.586Z,61.20
2017-05-11T01:35:04.851Z,61.60
2017-05-11T01:37:33.158Z,61.90
2017-05-11T01:40:01.417Z,62.00
2017-05-11T01:42:29.678Z,62.40
2017-05-11T01:44:57.972Z,63.40
2017-05-11T01:47:26.267Z,63.20
2017-05-11T01:49:54.531Z,63.40
2017-05-11T01:52:23.067Z,63.40
2017-05-11T01:54:52.081Z,64.00
2017-05-11T01:57:20.368Z,63.40
2017-05-11T01:59:48.688Z,63.70
2017-05-11T02:02:16.963Z,64.10
2017-05-11T02:04:45.241Z,64.20
2017-05-11T02:07:13.548Z,64.70
2017-05-11T02:09:41.820Z,64.80
2017-05-11T02:12:10.123Z,65.00
2017-05-11T02:14:39.165Z,65.10
2017-05-11T02:17:07.440Z,65.30
2017-05-11T02:19:35.778Z,65.50
2017-05-11T02:22:04.060Z,65.50
2017-05-11T02:24:32.327Z,65.90
2017-05-11T02:27:01.388Z,66.00
2017-05-11T02:29:29.660Z,66.10
2017-05-11T02:31:58.029Z,66.30
2017-05-11T02:34:26.505Z,66.70
2017-05-11T02:36:54.780Z,66.60
2017-05-11T02:39:23.057Z,67.00
2017-05-11T02:41:51.542Z,67.10
2017-05-11T02:44:19.920Z,67.10
2017-05-11T02:46:48.205Z,67.40
2017-05-11T02:49:16.576Z,67.70
2017-05-11T02:51:44.853Z,67.90
2017-05-11T02:54:13.125Z,67.90
2017-05-11T02:56:41.539Z,68.50
2017-05-11T02:59:09.924Z,68.50
2017-05-11T03:01:38.196Z,68.80
2017-05-11T03:04:07.003Z,69.00
2017-05-11T03:06:35.279Z,69.00
2017-05-11T03:09:03.552Z,69.30
2017-05-11T03:11:31.870Z,69.40
2017-05-11T03:14:00.884Z,70.00
2017-05-11T03:16:29.161Z,70.00
2017-05-11T03:18:57.464Z,70.40
2017-05-11T03:21:25.759Z,70.30
2017-05-11T03:23:54.031Z,70.80
2017-05-11T03:26:22.338Z,70.90
2017-05-11T03:28:51.353Z,70.90
2017-05-11T03:31:19.628Z,70.90
2017-05-11T03:33:48.051Z,70.90
2017-05-11T03:36:16.326Z,70.90
2017-05-11T03:38:44.591Z,71.00
2017-05-11T03:41:12.998Z,71.60
2017-05-11T03:43:41.273Z,71.60
2017-05-11T03:46:09.544Z,71.70
2017-05-11T03:48:37.860Z,71.60
2017-05-11T03:51:06.872Z,72.10
2017-05-11T03:53:35.144Z,71.80
2017-05-11T03:56:03.462Z,71.70
2017-05-11T03:58:31.732Z,72.00
2017-05-11T04:01:00.005Z,71.70
2017-05-11T04:03:28.330Z,72.70
2017-05-11T04:05:57.360Z,72.80
2017-05-11T04:08:25.632Z,73.00
2017-05-11T04:10:53.932Z,73.10
2017-05-11T04:13:22.205Z,73.00
2017-05-11T04:15:50.476Z,72.90
2017-05-11T04:18:18.782Z,73.00
2017-05-11T04:20:47.057Z,73.00
2017-05-11T04:23:15.371Z,72.90
2017-05-11T04:25:44.384Z,72.60
2017-05-11T04:28:12.660Z,72.50
2017-05-11T04:30:41.277Z,72.40
2017-05-11T04:33:09.549Z,71.90
2017-05-11T04:35:37.824Z,71.90
2017-05-11T04:38:06.227Z,71.60
2017-05-11T04:40:34.512Z,71.60
2017-05-11T04:43:02.784Z,71.30
2017-05-11T04:45:31.188Z,71.20
2017-05-11T04:47:59.456Z,71.30
2017-05-11T04:50:27.728Z,70.70
2017-05-11T04:52:56.029Z,70.40
2017-05-11T04:55:24.304Z,70.40
2017-05-11T04:57:52.606Z,70.00
2017-05-11T05:00:21.648Z,69.70
2017-05-11T05:02:50.029Z,69.50
2017-05-11T05:05:18.412Z,69.00
2017-05-11T05:07:46.704Z,68.60
2017-05-11T05:10:15.064Z,68.10
2017-05-11T05:12:43.544Z,67.80
2017-05-11T05:15:11.923Z,67.60
2017-05-11T05:17:40.324Z,67.50
2017-05-11T05:20:08.684Z,67.20
2017-05-11T05:22:36.960Z,66.10
2017-05-11T05:25:05.341Z,65.80
2017-05-11T05:27:33.715Z,65.40
2017-05-11T05:30:01.988Z,65.40
2017-05-11T05:32:30.301Z,64.20
2017-05-11T05:34:58.776Z,63.90
2017-05-11T05:37:27.051Z,64.00
2017-05-11T05:39:55.328Z,63.40
2017-05-11T05:42:23.811Z,63.10
2017-05-11T05:44:52.088Z,62.60
2017-05-11T05:47:20.369Z,62.40
2017-05-11T05:49:48.817Z,61.60
2017-05-11T05:52:17.092Z,61.10
2017-05-11T05:54:45.363Z,60.60
2017-05-11T05:57:13.780Z,59.60
2017-05-11T05:59:42.051Z,59.30
2017-05-11T06:02:10.323Z,58.90
2017-05-11T06:04:38.640Z,58.50
2017-05-11T06:07:06.988Z,57.40
2017-05-11T06:09:35.368Z,57.20
2017-05-11T06:12:03.748Z,57.20
2017-05-11T06:14:32.129Z,56.50
2017-05-11T06:17:00.503Z,55.50
2017-05-11T06:19:28.881Z,54.40
2017-05-11T06:21:57.160Z,54.10
2017-05-11T06:24:25.432Z,53.00
2017-05-11T06:26:53.740Z,52.80
2017-05-11T06:29:22.095Z,52.30
2017-05-11T06:31:50.420Z,52.10
2017-05-11T06:34:19.464Z,51.70
2017-05-11T06:36:47.839Z,51.30
2017-05-11T06:39:16.172Z,50.40
2017-05-11T06:41:45.196Z,50.20
2017-05-11T06:44:13.467Z,50.10
2017-05-11T06:46:41.775Z,50.30
2017-05-11T06:49:10.052Z,49.60
2017-05-11T06:51:38.425Z,48.90
2017-05-11T06:54:06.747Z,48.70
2017-05-11T06:56:35.763Z,48.40
2017-05-11T06:59:04.040Z,47.80
2017-05-11T07:01:32.631Z,47.50
2017-05-11T07:04:00.939Z,47.20
2017-05-11T07:06:29.216Z,46.90
2017-05-11T07:08:57.520Z,45.20
2017-05-11T07:11:25.869Z,45.90
2017-05-11T07:13:54.172Z,45.40
2017-05-11T07:16:22.546Z,44.80
2017-05-11T07:18:50.849Z,44.70
2017-05-11T07:21:19.196Z,44.30
2017-05-11T07:23:47.578Z,43.80
2017-05-11T07:26:15.909Z,42.60
2017-05-11T07:28:44.952Z,41.90
2017-05-11T07:31:13.236Z,40.30
2017-05-11T07:33:41.559Z,40.60
2017-05-11T07:36:10.605Z,39.70
2017-05-11T07:38:38.980Z,39.80
2017-05-11T07:41:07.356Z,38.90
2017-05-11T07:43:35.637Z,38.70
2017-05-11T07:46:04.013Z,37.90
2017-05-11T07:48:32.316Z,37.70
2017-05-11T07:51:00.674Z,37.30
2017-05-11T07:53:28.979Z,36.20
2017-05-11T07:55:57.324Z,35.50
2017-05-11T07:58:25.704Z,35.40
2017-05-11T08:00:54.084Z,34.20
2017-05-11T08:03:22.467Z,34.30
2017-05-11T08:05:50.745Z,34.40
2017-05-11T08:08:19.064Z,33.60
2017-05-11T08:10:48.088Z,33.70
2017-05-11T08:13:16.364Z,32.30
2017-05-11T08:15:44.676Z,31.70
2017-05-11T08:18:13.207Z,30.70
2017-05-11T08:20:41.488Z,30.80
2017-05-11T08:23:09.810Z,31.40
2017-05-11T08:25:38.121Z,31.00
2017-05-11T08:28:07.134Z,31.40
2017-05-11T08:30:35.827Z,31.90
2017-05-11T08:33:04.239Z,31.30
2017-05-11T08:35:32.616Z,31.40
2017-05-11T08:38:01.000Z,31.00
2017-05-11T08:40:29.384Z,30.90
2017-05-11T08:42:57.757Z,31.30
2017-05-11T08:45:26.554Z,30.70
2017-05-11T08:47:54.924Z,30.90
2017-05-11T08:50:23.248Z,30.60
2017-05-11T08:52:52.351Z,30.80
2017-05-11T08:55:21.391Z,30.90
2017-05-11T08:57:49.674Z,30.40
2017-05-11T09:00:18.049Z,30.20
2017-05-11T09:02:46.349Z,30.00
2017-05-11T09:05:14.703Z,29.70
2017-05-11T09:07:42.977Z,29.70
2017-05-11T09:10:11.568Z,29.50
2017-05-11T09:12:39.869Z,29.10
2017-05-11T09:15:08.140Z,29.00
2017-05-11T09:17:36.448Z,28.70
2017-05-11T09:20:05.464Z,28.50
2017-05-11T09:22:33.869Z,28.50
2017-05-11T09:25:02.249Z,28.00
2017-05-11T09:27:30.529Z,27.60
2017-05-11T09:29:58.908Z,28.00
2017-05-11T09:32:27.276Z,27.60
2017-05-11T09:34:55.664Z,28.10
2017-05-11T09:37:24.045Z,27.70
2017-05-11T09:39:52.424Z,28.20
2017-05-11T09:42:20.705Z,27.80
2017-05-11T09:44:49.080Z,27.90
2017-05-11T09:47:17.407Z,27.30
2017-05-11T09:49:46.461Z,27.30
2017-05-11T09:52:14.740Z,27.50
2017-05-11T09:54:43.217Z,28.00
2017-05-11T09:57:11.593Z,28.10
2017-05-11T09:59:40.073Z,28.40
2017-05-11T10:02:08.353Z,29.00
2017-05-11T10:04:36.628Z,29.00
2017-05-11T10:07:04.956Z,28.40
2017-05-11T10:09:33.980Z,28.50
2017-05-11T10:12:02.283Z,28.50
2017-05-11T10:14:30.651Z,28.70
2017-05-11T10:16:58.932Z,28.40
2017-05-11T10:19:27.332Z,28.50
2017-05-11T10:21:55.639Z,29.40
2017-05-11T10:24:24.660Z,28.70
2017-05-11T10:26:53.060Z,28.80
2017-05-11T10:29:21.365Z,28.20
2017-05-11T10:31:49.713Z,28.10
2017-05-11T10:34:17.988Z,28.60
2017-05-11T10:36:46.367Z,28.70
2017-05-11T10:39:14.644Z,28.90
2017-05-11T10:41:42.928Z,29.10
2017-05-11T10:44:11.232Z,28.50
2017-05-11T10:46:39.579Z,28.90
2017-05-11T10:49:08.269Z,29.10
2017-05-11T10:51:36.653Z,27.50
2017-05-11T10:54:05.027Z,27.40
2017-05-11T10:56:33.348Z,27.00
2017-05-11T10:59:02.396Z,27.30
2017-05-11T11:01:30.668Z,27.30
2017-05-11T11:03:58.985Z,28.10
2017-05-11T11:06:27.260Z,27.40
2017-05-11T11:08:55.532Z,27.20
2017-05-11T11:11:23.856Z,27.00
2017-05-11T11:13:52.880Z,27.50
2017-05-11T11:16:21.148Z,27.10
2017-05-11T11:18:49.668Z,27.00
2017-05-11T11:21:17.944Z,27.00
2017-05-11T11:23:46.224Z,26.70
2017-05-11T11:26:14.543Z,26.70
2017-05-11T11:28:43.594Z,26.90
2017-05-11T11:31:11.864Z,27.40
2017-05-11T11:33:40.267Z,27.30
2017-05-11T11:36:08.629Z,26.90
2017-05-11T11:38:36.906Z,27.00
2017-05-11T11:41:05.217Z,27.10
2017-05-11T11:43:34.267Z,27.40
2017-05-11T11:46:02.572Z,27.50
2017-05-11T11:48:30.924Z,26.70
2017-05-11T11:50:59.316Z,27.40
2017-05-11T11:53:27.592Z,26.70
2017-05-11T11:55:55.896Z,26.60
2017-05-11T11:58:24.167Z,26.40
2017-05-11T12:00:52.439Z,26.20
2017-05-11T12:03:20.757Z,26.60
2017-05-11T12:05:49.952Z,26.60
2017-05-11T12:08:18.223Z,26.50
2017-05-11T12:10:46.570Z,26.50
2017-05-11T12:13:14.944Z,26.50
2017-05-11T12:15:43.321Z,26.40
2017-05-11T12:18:11.636Z,27.40
2017-05-11T12:20:39.912Z,27.10
2017-05-11T12:23:08.188Z,26.30
2017-05-11T12:25:36.505Z,25.70
2017-05-11T12:28:04.807Z,25.30
2017-05-11T12:30:33.183Z,25.90
2017-05-11T12:33:01.568Z,25.60
2017-05-11T12:35:29.836Z,25.80
2017-05-11T12:37:58.108Z,25.80
2017-05-11T12:40:26.599Z,26.10
2017-05-11T12:42:54.879Z,24.90
2017-05-11T12:45:23.147Z,25.10
2017-05-11T12:47:51.444Z,25.20
2017-05-11T12:50:19.811Z,24.90
2017-05-11T12:52:48.202Z,24.60
2017-05-11T12:55:16.476Z,24.80
2017-05-11T12:57:44.748Z,24.60
2017-05-11T13:00:13.112Z,24.90
2017-05-11T13:02:41.409Z,24.90
2017-05-11T13:05:09.716Z,24.80
2017-05-11T13:07:38.781Z,24.90
2017-05-11T13:10:07.262Z,25.00
2017-05-11T13:12:35.541Z,24.70
2017-05-11T13:15:03.822Z,25.10
2017-05-11T13:17:32.152Z,24.40
2017-05-11T13:20:00.429Z,24.40
2017-05-11T13:22:28.782Z,23.90
2017-05-11T13:24:57.097Z,24.00
2017-05-11T13:27:26.256Z,23.80
2017-05-11T13:29:54.541Z,24.30
2017-05-11T13:32:22.829Z,23.20
2017-05-11T13:34:51.713Z,23.70
2017-05-11T13:37:19.997Z,23.20
2017-05-11T13:39:48.280Z,23.30
2017-05-11T13:42:16.772Z,23.00
2017-05-11T13:44:45.132Z,22.40
2017-05-11T13:47:13.499Z,23.00
2017-05-11T13:49:41.825Z,23.00
2017-05-11T13:52:10.846Z,23.30
2017-05-11T13:54:39.127Z,23.20
2017-05-11T13:57:07.437Z,23.40
2017-05-11T13:59:37.852Z,23.50
2017-05-11T14:02:06.236Z,22.90
2017-05-11T14:04:34.580Z,23.50
2017-05-11T14:07:02.952Z,23.70
2017-05-11T14:09:31.379Z,23.90
2017-05-11T14:11:59.865Z,23.60
2017-05-11T14:14:29.421Z,23.80
2017-05-11T14:16:57.838Z,23.70
2017-05-11T14:19:26.145Z,24.20
2017-05-11T14:21:55.367Z,24.20
2017-05-11T14:24:23.689Z,24.40
2017-05-11T14:26:52.036Z,24.40
2017-05-11T14:29:20.438Z,24.00
2017-05-11T14:31:49.690Z,24.50
2017-05-11T14:34:18.086Z,23.80
2017-05-11T14:36:47.067Z,23.70
2017-05-11T14:39:15.557Z,23.40
2017-05-11T14:41:43.937Z,23.90
2017-05-11T14:44:12.417Z,24.30
2017-05-11T14:46:40.990Z,25.10
2017-05-11T14:49:09.575Z,24.20
2017-05-11T14:51:37.964Z,24.70
2017-05-11T14:54:06.338Z,24.40
2017-05-11T14:56:34.822Z,24.90
2017-05-11T14:59:03.413Z,24.60
2017-05-11T15:01:31.721Z,23.80
2017-05-11T15:04:01.071Z,24.00
2017-05-11T15:06:29.586Z,23.80
2017-05-11T15:08:58.788Z,24.70
2017-05-11T15:11:27.955Z,24.70
2017-05-11T15:13:56.540Z,24.50
2017-05-11T15:16:25.023Z,24.70
2017-05-11T15:18:53.608Z,25.00
2017-05-11T15:21:22.118Z,24.50
2017-05-11T15:23:51.412Z,24.60
2017-05-11T15:26:19.974Z,24.70
2017-05-11T15:28:48.498Z,24.70
2017-05-11T15:31:16.968Z,24.90
2017-05-11T15:33:45.521Z,25.10
2017-05-11T15:36:14.002Z,24.80
2017-05-11T15:38:42.518Z,24.50
2017-05-11T15:41:11.044Z,24.10
2017-05-11T15:43:39.462Z,24.20
2017-05-11T15:46:08.870Z,24.00
2017-05-11T15:48:37.429Z,24.00
2017-05-11T15:51:05.805Z,24.10
2017-05-11T15:53:34.491Z,24.70
2017-05-11T15:56:03.000Z,24.10
2017-05-11T15:58:31.406Z,24.20
2017-05-11T16:01:01.707Z,24.40
2017-05-11T16:03:30.206Z,24.60
2017-05-11T16:05:59.900Z,24.90
2017-05-11T16:08:28.577Z,24.50
2017-05-11T16:10:57.249Z,25.00
2017-05-11T16:13:25.658Z,24.90
2017-05-11T16:15:54.223Z,25.30
2017-05-11T16:18:23.514Z,25.30
2017-05-11T16:20:52.323Z,25.70
2017-05-11T16:23:21.300Z,25.20
2017-05-11T16:25:56.491Z,25.00
2017-05-11T16:28:25.236Z,25.40
2017-05-11T16:30:53.717Z,25.90
2017-05-11T16:33:22.198Z,27.30
2017-05-11T16:35:50.581Z,27.00
2017-05-11T16:38:18.884Z,26.50
2017-05-11T16:40:47.745Z,25.50
2017-05-11T16:43:16.116Z,25.50
2017-05-11T16:45:44.446Z,26.30
2017-05-11T16:48:12.804Z,26.40
2017-05-11T16:50:41.098Z,26.60
2017-05-11T16:53:09.546Z,26.50
2017-05-11T16:55:38.790Z,26.40
2017-05-11T16:58:07.117Z,26.40
2017-05-11T17:00:35.621Z,26.60
2017-05-11T17:03:04.006Z,26.90
2017-05-11T17:05:33.074Z,27.20
2017-05-11T17:08:01.383Z,27.00
2017-05-11T17:10:30.819Z,27.10
2017-05-11T17:12:59.091Z,27.10
2017-05-11T17:15:27.404Z,27.00
2017-05-11T17:17:55.884Z,27.20
2017-05-11T17:20:24.156Z,27.40
2017-05-11T17:22:52.441Z,27.60
2017-05-11T17:25:20.823Z,27.30
2017-05-11T17:27:49.249Z,27.20
2017-05-11T17:30:18.268Z,27.40
2017-05-11T17:32:46.672Z,27.30
2017-05-11T17:35:14.947Z,27.40
2017-05-11T17:37:43.223Z,27.40
2017-05-11T17:40:11.547Z,27.50
2017-05-11T17:42:40.561Z,27.80
2017-05-11T17:45:08.859Z,27.60
2017-05-11T17:47:37.190Z,27.70
2017-05-11T17:50:05.478Z,28.40
2017-05-11T17:52:33.868Z,28.10
2017-05-11T17:55:02.200Z,28.20
2017-05-11T17:57:31.220Z,28.50
2017-05-11T17:59:59.532Z,28.40
2017-05-11T18:02:28.683Z,28.50
2017-05-11T18:04:56.999Z,28.50
2017-05-11T18:07:25.381Z,28.50
2017-05-11T18:09:53.714Z,29.20
2017-05-11T18:12:22.040Z,29.00
2017-05-11T18:14:50.316Z,29.20
2017-05-11T18:17:18.636Z,29.40
2017-05-11T18:19:47.651Z,29.40
2017-05-11T18:22:15.961Z,29.30
2017-05-11T18:24:44.272Z,29.30
2017-05-11T18:27:12.544Z,29.30
2017-05-11T18:29:40.899Z,29.30
2017-05-11T18:32:10.461Z,29.30
2017-05-11T18:34:38.799Z,29.30
2017-05-11T18:37:07.071Z,29.40
2017-05-11T18:39:35.367Z,29.80
2017-05-11T18:42:03.675Z,30.00
2017-05-11T18:44:31.995Z,30.00
2017-05-11T18:47:00.324Z,30.10
2017-05-11T18:49:29.546Z,30.50
2017-05-11T18:51:57.912Z,30.30
2017-05-11T18:54:26.221Z,30.20
2017-05-11T18:56:55.284Z,30.20
2017-05-11T18:59:24.298Z,30.40
2017-05-11T19:01:52.574Z,30.90
2017-05-11T19:04:21.072Z,30.60
2017-05-11T19:06:49.348Z,30.50
2017-05-11T19:09:18.364Z,31.30
2017-05-11T19:11:47.800Z,30.80
2017-05-11T19:14:16.077Z,31.00
2017-05-11T19:16:44.353Z,31.00
2017-05-11T19:19:13.038Z,31.20
2017-05-11T19:21:41.308Z,31.30
2017-05-11T19:24:09.793Z,31.50
2017-05-11T19:26:38.196Z,31.60
2017-05-11T19:29:06.471Z,31.80
2017-05-11T19:31:34.744Z,31.90
2017-05-11T19:34:03.304Z,31.90
2017-05-11T19:36:31.689Z,32.00
2017-05-11T19:39:00.066Z,32.30
2017-05-11T19:41:28.445Z,32.30
2017-05-11T19:43:56.777Z,32.30
2017-05-11T19:46:25.797Z,32.30
2017-05-11T19:48:54.100Z,32.50
2017-05-11T19:51:22.401Z,32.30
2017-05-11T19:53:50.748Z,32.30
2017-05-11T19:56:19.133Z,32.30
2017-05-11T19:58:47.722Z,32.30
2017-05-11T20:01:15.999Z,32.20
2017-05-11T20:03:44.369Z,32.20
2017-05-11T20:06:12.681Z,32.20
2017-05-11T20:08:40.964Z,32.40
2017-05-11T20:11:09.305Z,32.40
2017-05-11T20:13:37.684Z,32.70
2017-05-11T20:16:05.957Z,33.00
2017-05-11T20:18:34.344Z,32.90
2017-05-11T20:21:02.821Z,33.20
2017-05-11T20:23:31.100Z,33.30
2017-05-11T20:25:59.459Z,33.80
2017-05-11T20:28:27.740Z,33.90
2017-05-11T20:30:56.231Z,34.20
2017-05-11T20:33:24.511Z,34.30
2017-05-11T20:35:52.896Z,34.70
2017-05-11T20:38:21.404Z,34.70
2017-05-11T20:40:50.421Z,34.70
2017-05-11T20:43:18.698Z,35.00
2017-05-11T20:45:47.023Z,35.00
2017-05-11T20:48:15.295Z,35.30
2017-05-11T20:50:44.360Z,35.30
2017-05-11T20:53:12.722Z,35.20
2017-05-11T20:55:41.001Z,35.20
2017-05-11T20:58:09.761Z,35.20
2017-05-11T21:00:38.040Z,35.80
2017-05-11T21:03:06.415Z,36.00
2017-05-11T21:05:35.074Z,36.20
2017-05-11T21:08:03.360Z,36.50
2017-05-11T21:10:31.645Z,36.30
2017-05-11T21:13:00.141Z,36.40
2017-05-11T21:15:28.445Z,36.70
2017-05-11T21:17:56.737Z,36.90
2017-05-11T21:20:25.037Z,36.90
2017-05-11T21:22:53.392Z,36.90
2017-05-11T21:25:21.867Z,37.10
2017-05-11T21:27:50.152Z,36.30
2017-05-11T21:30:18.433Z,37.00
2017-05-11T21:32:46.771Z,37.40
2017-05-11T21:35:15.061Z,37.60
2017-05-11T21:37:44.089Z,37.90
2017-05-11T21:40:12.400Z,37.70
2017-05-11T21:42:40.699Z,37.80
2017-05-11T21:45:09.037Z,37.90
2017-05-11T21:47:37.841Z,38.10
2017-05-11T21:50:06.313Z,38.20
2017-05-11T21:52:35.328Z,38.30
2017-05-11T21:55:03.631Z,38.60
2017-05-11T21:57:31.921Z,38.80
2017-05-11T22:00:00.221Z,39.10
2017-05-11T22:02:28.751Z,39.20
2017-05-11T22:04:57.164Z,39.30
2017-05-11T22:07:25.544Z,39.90
2017-05-11T22:09:54.019Z,39.30
2017-05-11T22:12:22.305Z,39.40
2017-05-11T22:14:50.591Z,39.20
2017-05-11T22:17:18.913Z,39.30
2017-05-11T22:19:47.193Z,39.70
2017-05-11T22:22:15.472Z,39.80
2017-05-11T22:24:44.198Z,40.00
2017-05-11T22:27:12.477Z,40.20
2017-05-11T22:29:40.753Z,40.10
2017-05-11T22:32:09.072Z,40.30
2017-05-11T22:34:38.084Z,40.80
2017-05-11T22:37:06.355Z,40.10
2017-05-11T22:39:34.660Z,40.90
2017-05-11T22:42:02.971Z,41.00
2017-05-11T22:44:31.243Z,42.10
2017-05-11T22:46:59.567Z,41.70
2017-05-11T22:49:27.849Z,42.40
2017-05-11T22:51:56.125Z,43.10
2017-05-11T22:54:24.495Z,43.20
2017-05-11T22:56:53.508Z,43.10
2017-05-11T22:59:21.791Z,43.60
2017-05-11T23:01:50.115Z,43.10
2017-05-11T23:04:18.400Z,44.00
2017-05-11T23:06:46.667Z,41.80
2017-05-11T23:09:14.968Z,40.70
2017-05-11T23:11:44.013Z,40.50
2017-05-11T23:14:12.297Z,40.00
2017-05-11T23:16:40.705Z,39.70
2017-05-11T23:19:09.727Z,39.80
2017-05-11T23:21:37.999Z,39.30
2017-05-11T23:24:06.626Z,39.30
2017-05-11T23:26:34.902Z,39.30
2017-05-11T23:29:03.177Z,39.40
2017-05-11T23:31:31.592Z,39.70
2017-05-11T23:33:59.872Z,39.90
2017-05-11T23:36:28.887Z,40.00
2017-05-11T23:38:57.205Z,40.80
2017-05-11T23:41:25.487Z,40.30
2017-05-11T23:43:53.864Z,40.60
2017-05-11T23:46:22.196Z,40.80
2017-05-11T23:48:50.560Z,41.70
2017-05-11T23:51:19.576Z,41.00
2017-05-11T23:53:48.623Z,41.10
2017-05-11T23:56:16.901Z,41.10
2017-05-11T23:58:45.171Z,41.00
